createdAt,value
2018-11-13T00:02:24.274Z,26.30
2018-11-13T00:04:54.241Z,22.47
2018-11-13T00:07:23.041Z,21.67
2018-11-13T00:09:57.890Z,21.93
2018-11-13T00:12:26.922Z,22.30
2018-11-13T00:14:55.991Z,21.93
2018-11-13T00:17:25.051Z,20.17
2018-11-13T00:19:53.917Z,21.63
2018-11-13T00:22:22.764Z,19.57
2018-11-13T00:24:52.697Z,21.52
2018-11-13T00:27:21.625Z,22.03
2018-11-13T00:29:50.555Z,20.17
2018-11-13T00:32:19.472Z,22.37
2018-11-13T00:34:48.368Z,22.53
2018-11-13T00:37:17.212Z,19.53
2018-11-13T00:39:47.299Z,18.30
2018-11-13T00:42:17.002Z,21.03
2018-11-13T00:44:45.801Z,21.77
2018-11-13T00:47:14.786Z,22.70
2018-11-13T00:49:43.663Z,19.53
2018-11-13T00:52:12.604Z,20.70
2018-11-13T00:54:41.576Z,22.27
2018-11-13T00:57:10.680Z,21.10
2018-11-13T00:59:39.558Z,21.57
2018-11-13T01:02:09.409Z,20.37
2018-11-13T01:04:38.389Z,21.63
2018-11-13T01:07:07.325Z,23.03
2018-11-13T01:09:36.147Z,23.17
2018-11-13T01:12:05.041Z,22.97
2018-11-13T01:14:33.841Z,24.55
2018-11-13T01:17:02.786Z,22.70
2018-11-13T01:19:31.656Z,22.00
2018-11-13T01:22:00.537Z,24.43
2018-11-13T01:24:29.646Z,23.60
2018-11-13T01:26:58.534Z,22.60
2018-11-13T01:29:27.495Z,23.23
2018-11-13T01:31:56.450Z,22.23
2018-11-13T01:34:25.400Z,23.17
2018-11-13T01:36:54.273Z,22.80
2018-11-13T01:39:23.269Z,23.23
2018-11-13T01:41:52.150Z,22.03
2018-11-13T01:44:20.977Z,24.40
2018-11-13T01:46:49.817Z,21.73
2018-11-13T01:49:18.664Z,23.53
2018-11-13T01:51:47.479Z,21.90
2018-11-13T01:54:16.351Z,23.03
2018-11-13T01:56:45.165Z,24.47
2018-11-13T01:59:14.048Z,28.87
2018-11-13T02:01:42.901Z,24.70
2018-11-13T02:04:11.765Z,24.72
2018-11-13T02:06:41.040Z,23.67
2018-11-13T02:09:10.731Z,24.63
2018-11-13T02:11:39.724Z,26.73
2018-11-13T02:19:09.375Z,23.10
2018-11-13T02:21:38.258Z,27.03
2018-11-13T02:24:07.079Z,25.30
2018-11-13T02:26:35.969Z,23.50
2018-11-13T02:29:05.065Z,24.17
2018-11-13T02:31:33.938Z,25.40
2018-11-13T02:34:02.805Z,23.47
2018-11-13T02:36:32.539Z,23.67
2018-11-13T02:39:01.357Z,23.40
2018-11-13T02:41:30.265Z,22.00
2018-11-13T02:43:59.165Z,22.60
2018-11-13T02:46:29.354Z,26.45
2018-11-13T02:48:58.203Z,23.62
2018-11-13T02:51:27.053Z,23.17
2018-11-13T02:53:56.095Z,20.63
2018-11-13T02:56:24.953Z,22.50
2018-11-13T02:58:53.822Z,24.20
2018-11-13T03:01:22.726Z,26.07
2018-11-13T03:03:51.569Z,26.47
2018-11-13T03:06:20.345Z,23.07
2018-11-13T03:08:49.170Z,24.23
2018-11-13T03:11:18.081Z,24.30
2018-11-13T03:13:46.959Z,30.47
2018-11-13T03:16:15.760Z,25.02
2018-11-13T03:18:44.553Z,25.50
2018-11-13T03:26:12.989Z,29.90
2018-11-13T03:28:42.395Z,26.53
2018-11-13T03:31:11.358Z,28.10
2018-11-13T03:33:40.181Z,25.92
2018-11-13T03:36:09.125Z,28.17
2018-11-13T03:38:37.980Z,27.37
2018-11-13T03:41:06.825Z,26.63
2018-11-13T03:43:35.760Z,26.37
2018-11-13T03:46:05.037Z,29.67
2018-11-13T03:48:33.971Z,28.17
2018-11-13T03:51:02.839Z,28.73
2018-11-13T03:53:31.761Z,24.30
2018-11-13T03:56:00.794Z,28.67
2018-11-13T03:58:29.715Z,25.60
2018-11-13T04:00:58.557Z,26.60
2018-11-13T04:03:27.451Z,31.50
2018-11-13T04:05:56.319Z,28.27
2018-11-13T04:08:25.157Z,25.33
2018-11-13T04:15:53.559Z,22.63
2018-11-13T04:18:22.436Z,20.23
2018-11-13T04:20:51.291Z,22.03
2018-11-13T04:23:20.097Z,23.25
2018-11-13T04:25:48.982Z,21.07
2018-11-13T04:28:17.813Z,21.70
2018-11-13T04:30:46.799Z,17.60
2018-11-13T04:33:15.547Z,18.62
2018-11-13T04:35:44.377Z,20.27
2018-11-13T04:38:13.310Z,17.80
2018-11-13T04:40:42.142Z,14.63
2018-11-13T04:43:11.001Z,14.13
2018-11-13T04:45:39.803Z,15.78
2018-11-13T04:48:08.650Z,15.90
2018-11-13T04:50:37.505Z,12.98
2018-11-13T04:53:06.387Z,13.37
2018-11-13T04:55:35.373Z,11.57
2018-11-13T04:58:04.342Z,11.77
2018-11-13T05:00:33.237Z,12.67
2018-11-13T05:03:02.177Z,13.23
2018-11-13T05:05:31.045Z,13.20
2018-11-13T05:07:59.909Z,10.57
2018-11-13T05:10:28.846Z,10.03
2018-11-13T05:12:57.741Z,10.85
2018-11-13T05:15:26.581Z,8.80
2018-11-13T05:17:56.216Z,9.33
2018-11-13T05:20:25.177Z,9.73
2018-11-13T05:22:53.984Z,9.93
2018-11-13T05:25:22.841Z,9.70
2018-11-13T05:27:51.705Z,7.90
2018-11-13T05:30:21.639Z,7.67
2018-11-13T05:32:50.703Z,8.57
2018-11-13T05:35:20.667Z,7.37
2018-11-13T05:37:49.779Z,10.80
2018-11-13T05:40:19.965Z,8.40
2018-11-13T05:42:48.839Z,5.83
2018-11-13T05:45:19.809Z,6.43
2018-11-13T05:47:48.664Z,8.97
2018-11-13T05:50:18.093Z,4.77
2018-11-13T05:52:48.740Z,5.50
2018-11-13T05:55:17.739Z,5.77
2018-11-13T05:57:46.768Z,5.53
2018-11-13T06:00:18.889Z,4.30
2018-11-13T06:02:47.918Z,5.37
2018-11-13T06:05:16.910Z,6.20
2018-11-13T06:07:45.651Z,4.67
2018-11-13T06:10:15.493Z,4.40
2018-11-13T06:17:42.045Z,4.17
2018-11-13T06:20:12.324Z,5.13
2018-11-13T06:22:41.150Z,6.43
2018-11-13T06:25:11.962Z,4.45
2018-11-13T06:27:42.039Z,4.87
2018-11-13T06:30:15.161Z,7.77
2018-11-13T06:32:44.486Z,5.47
2018-11-13T06:35:13.273Z,7.27
2018-11-13T06:37:42.213Z,5.33
2018-11-13T06:40:11.322Z,5.62
2018-11-13T06:42:40.959Z,4.50
2018-11-13T06:45:14.238Z,5.33
2018-11-13T06:47:44.047Z,6.60
2018-11-13T06:50:13.125Z,4.47
2018-11-13T06:52:42.337Z,5.47
2018-11-13T06:55:30.561Z,5.23
2018-11-13T06:57:59.487Z,5.65
2018-11-13T07:00:28.332Z,7.83
2018-11-13T07:02:57.238Z,5.30
2018-11-13T07:05:26.091Z,4.90
2018-11-13T07:07:54.969Z,5.27
2018-11-13T07:10:25.174Z,6.23
2018-11-13T07:12:54.689Z,6.15
2018-11-13T07:15:24.688Z,6.10
2018-11-13T07:17:55.078Z,6.07
2018-11-13T07:20:24.788Z,4.83
2018-11-13T07:22:53.645Z,5.78
2018-11-13T07:25:22.630Z,7.27
2018-11-13T07:30:10.105Z,4.80
2018-11-13T07:32:39.593Z,6.87
2018-11-13T07:35:09.405Z,5.57
2018-11-13T07:37:38.821Z,5.43
2018-11-13T07:40:08.320Z,6.20
2018-11-13T07:42:37.173Z,5.27
2018-11-13T07:50:08.805Z,3.07
2018-11-13T07:52:37.849Z,3.23
2018-11-13T07:55:07.272Z,3.23
2018-11-13T07:57:36.213Z,3.53
2018-11-13T08:00:09.185Z,3.77
2018-11-13T08:02:38.193Z,3.63
2018-11-13T08:05:07.481Z,4.23
2018-11-13T08:07:36.477Z,3.90
2018-11-13T08:10:05.994Z,6.03
2018-11-13T08:12:34.865Z,3.77
2018-11-13T08:15:03.794Z,3.77
2018-11-13T08:22:32.529Z,4.30
2018-11-13T08:25:01.390Z,4.57
2018-11-13T08:27:30.233Z,2.37
2018-11-13T08:29:59.151Z,4.17
2018-11-13T08:32:27.994Z,3.80
2018-11-13T08:34:56.980Z,4.80
2018-11-13T08:37:25.672Z,4.17
2018-11-13T08:39:54.894Z,3.98
2018-11-13T08:42:24.324Z,4.13
2018-11-13T08:44:54.142Z,7.90
2018-11-13T08:47:23.171Z,3.70
2018-11-13T08:49:52.078Z,4.27
2018-11-13T08:52:20.937Z,6.63
2018-11-13T08:54:50.053Z,3.13
2018-11-13T08:57:18.993Z,3.62
2018-11-13T08:59:47.766Z,3.20
2018-11-13T09:02:16.637Z,3.20
2018-11-13T09:04:45.572Z,4.03
2018-11-13T09:07:15.294Z,3.25
2018-11-13T09:09:46.166Z,6.70
2018-11-13T09:12:15.048Z,2.92
2018-11-13T09:14:43.889Z,4.85
2018-11-13T09:17:12.710Z,4.03
2018-11-13T09:19:41.642Z,4.30
2018-11-13T09:22:10.498Z,3.12
2018-11-13T09:24:39.376Z,2.12
2018-11-13T09:27:08.183Z,3.67
2018-11-13T09:30:11.563Z,3.75
2018-11-13T09:32:40.921Z,2.25
2018-11-13T09:35:10.936Z,2.70
2018-11-13T09:37:40.063Z,4.77
2018-11-13T09:40:12.721Z,3.77
2018-11-13T09:42:42.153Z,3.83
2018-11-13T09:45:11.886Z,6.27
2018-11-13T09:47:41.029Z,3.27
2018-11-13T09:50:12.093Z,8.48
2018-11-13T09:52:41.590Z,6.47
2018-11-13T09:55:11.792Z,4.35
2018-11-13T09:57:41.020Z,6.33
2018-11-13T10:00:18.135Z,5.00
2018-11-13T10:02:49.752Z,4.60
2018-11-13T10:05:19.217Z,4.87
2018-11-13T10:07:48.282Z,7.20
2018-11-13T10:10:17.463Z,5.33
2018-11-13T10:12:46.593Z,8.07
2018-11-13T10:15:20.920Z,4.00
2018-11-13T10:17:49.875Z,5.63
2018-11-13T10:20:18.696Z,5.47
2018-11-13T10:22:49.235Z,6.00
2018-11-13T10:25:18.122Z,7.90
2018-11-13T10:27:47.057Z,6.72
2018-11-13T10:30:17.494Z,3.53
2018-11-13T10:32:46.934Z,8.40
2018-11-13T10:35:17.249Z,7.70
2018-11-13T10:37:46.268Z,3.70
2018-11-13T10:40:16.488Z,3.93
2018-11-13T10:42:45.505Z,6.00
2018-11-13T10:45:17.797Z,7.80
2018-11-13T10:52:46.375Z,5.43
2018-11-13T10:55:15.222Z,4.87
2018-11-13T10:57:44.310Z,6.13
2018-11-13T11:00:19.554Z,3.03
2018-11-13T11:02:52.672Z,7.60
2018-11-13T11:05:22.541Z,5.40
2018-11-13T11:07:51.405Z,4.53
2018-11-13T11:10:21.213Z,5.60
2018-11-13T11:12:50.090Z,5.97
2018-11-13T11:15:18.944Z,5.05
2018-11-13T11:17:47.828Z,2.30
2018-11-13T11:25:11.209Z,3.70
2018-11-13T11:27:39.959Z,7.10
2018-11-13T11:30:11.005Z,5.77
2018-11-13T11:32:39.886Z,2.25
2018-11-13T11:35:08.821Z,2.23
2018-11-13T11:37:38.727Z,5.50
2018-11-13T11:40:08.048Z,2.70
2018-11-13T11:42:40.215Z,4.20
2018-11-13T11:45:11.856Z,6.50
2018-11-13T11:47:40.814Z,3.87
2018-11-13T11:50:11.022Z,2.97
2018-11-13T11:52:39.939Z,7.17
2018-11-13T11:55:09.346Z,3.73
2018-11-13T11:57:38.215Z,5.57
2018-11-13T12:00:09.682Z,5.83
2018-11-13T12:02:38.657Z,3.23
2018-11-13T12:05:08.066Z,5.00
2018-11-13T12:07:37.394Z,5.37
2018-11-13T12:10:09.808Z,3.90
2018-11-13T12:12:38.652Z,3.43
2018-11-13T12:15:09.534Z,3.47
2018-11-13T12:17:38.450Z,1.63
2018-11-13T12:20:08.681Z,3.20
2018-11-13T12:22:37.530Z,7.27
2018-11-13T12:25:08.471Z,4.23
2018-11-13T12:27:37.365Z,3.73
2018-11-13T12:30:09.016Z,3.97
2018-11-13T12:32:37.838Z,1.70
2018-11-13T12:35:07.607Z,5.47
2018-11-13T12:37:36.894Z,2.77
2018-11-13T12:40:07.001Z,4.63
2018-11-13T12:42:35.961Z,3.87
2018-11-13T12:45:06.454Z,5.27
2018-11-13T12:47:35.222Z,3.80
2018-11-13T12:50:04.794Z,5.07
2018-11-13T12:52:33.662Z,5.43
2018-11-13T12:55:02.593Z,3.27
2018-11-13T12:57:31.563Z,2.90
2018-11-13T13:00:00.494Z,4.20
2018-11-13T13:02:29.564Z,5.67
2018-11-13T13:04:58.607Z,7.97
2018-11-13T13:07:27.477Z,6.07
2018-11-13T13:09:57.478Z,4.75
2018-11-13T13:12:26.323Z,3.90
2018-11-13T13:14:55.302Z,2.03
2018-11-13T13:17:24.103Z,5.23
2018-11-13T13:19:52.888Z,3.80
2018-11-13T13:22:21.914Z,3.55
2018-11-13T13:24:50.651Z,4.67
2018-11-13T13:27:19.441Z,2.80
2018-11-13T13:29:48.325Z,3.77
2018-11-13T13:32:17.543Z,4.60
2018-11-13T13:34:46.370Z,5.80
2018-11-13T13:37:15.222Z,6.63
2018-11-13T13:39:44.027Z,2.97
2018-11-13T13:42:13.050Z,5.63
2018-11-13T13:44:41.914Z,2.17
2018-11-13T13:47:10.815Z,4.27
2018-11-13T13:49:39.717Z,4.78
2018-11-13T13:52:08.575Z,5.03
2018-11-13T13:59:36.650Z,3.97
2018-11-13T14:02:05.481Z,5.10
2018-11-13T14:04:34.274Z,6.63
2018-11-13T14:07:03.155Z,2.72
2018-11-13T14:09:32.121Z,5.73
2018-11-13T14:12:01.010Z,6.05
2018-11-13T14:14:30.009Z,6.97
2018-11-13T14:16:59.040Z,5.72
2018-11-13T14:19:28.033Z,4.03
2018-11-13T14:21:56.989Z,3.37
2018-11-13T14:24:26.058Z,4.63
2018-11-13T14:26:55.001Z,4.13
2018-11-13T14:29:23.897Z,2.10
2018-11-13T14:31:52.945Z,3.07
2018-11-13T14:34:21.895Z,5.95
2018-11-13T14:36:50.946Z,6.60
2018-11-13T14:39:19.885Z,5.73
2018-11-13T14:41:49.546Z,4.73
2018-11-13T14:44:18.376Z,2.63
2018-11-13T14:46:47.345Z,4.23
2018-11-13T14:49:16.217Z,4.23
2018-11-13T14:51:45.146Z,2.85
2018-11-13T14:54:13.990Z,4.20
2018-11-13T14:56:42.826Z,4.87
2018-11-13T14:59:11.724Z,5.10
2018-11-13T15:01:40.618Z,3.98
2018-11-13T15:04:09.465Z,4.37
2018-11-13T15:06:38.310Z,6.33
2018-11-13T15:09:07.701Z,6.53
2018-11-13T15:11:36.606Z,2.13
2018-11-13T15:14:05.640Z,4.83
2018-11-13T15:16:34.490Z,4.63
2018-11-13T15:19:03.531Z,4.33
2018-11-13T15:21:32.580Z,4.43
2018-11-13T15:24:01.574Z,5.77
2018-11-13T15:26:30.530Z,5.50
2018-11-13T15:29:00.446Z,2.80
2018-11-13T15:31:29.567Z,7.80
2018-11-13T15:33:58.481Z,6.40
2018-11-13T15:36:27.433Z,3.63
2018-11-13T15:38:56.387Z,6.10
2018-11-13T15:41:25.309Z,4.43
2018-11-13T15:43:54.577Z,3.40
2018-11-13T15:46:23.670Z,3.62
2018-11-13T15:48:52.558Z,6.13
2018-11-13T15:51:23.383Z,5.00
2018-11-13T15:53:52.289Z,2.50
2018-11-13T15:56:22.201Z,4.30
2018-11-13T15:58:51.330Z,3.43
2018-11-13T16:01:20.458Z,5.73
2018-11-13T16:03:49.671Z,4.95
2018-11-13T16:06:19.898Z,5.60
2018-11-13T16:08:48.658Z,2.45
2018-11-13T16:11:19.549Z,5.37
2018-11-13T16:13:48.372Z,6.43
2018-11-13T16:16:17.245Z,7.00
2018-11-13T16:18:46.437Z,7.47
2018-11-13T16:21:15.887Z,6.10
2018-11-13T16:23:44.963Z,5.43
2018-11-13T16:26:13.940Z,7.43
2018-11-13T16:28:42.844Z,4.27
2018-11-13T16:31:11.661Z,5.63
2018-11-13T16:33:40.526Z,5.00
2018-11-13T16:36:09.459Z,6.03
2018-11-13T16:38:38.324Z,4.20
2018-11-13T16:41:07.274Z,6.30
2018-11-13T16:43:36.397Z,5.57
2018-11-13T16:46:06.584Z,12.90
2018-11-13T16:48:35.673Z,5.80
2018-11-13T16:51:05.025Z,12.93
2018-11-13T16:53:38.371Z,5.60
2018-11-13T16:56:07.359Z,6.40
2018-11-13T16:58:36.327Z,5.83
2018-11-13T17:01:05.813Z,4.90
2018-11-13T17:03:34.999Z,17.00
2018-11-13T17:06:04.015Z,20.70
2018-11-13T17:08:32.785Z,9.05
2018-11-13T17:11:01.857Z,4.27
2018-11-13T17:13:30.770Z,6.35
2018-11-13T17:15:59.699Z,5.73
2018-11-13T17:18:29.845Z,6.13
2018-11-13T17:20:58.936Z,10.83
2018-11-13T17:23:27.929Z,6.50
2018-11-13T17:25:56.985Z,6.13
2018-11-13T17:28:25.972Z,6.03
2018-11-13T17:30:54.816Z,8.25
2018-11-13T17:33:23.756Z,6.03
2018-11-13T17:35:53.759Z,2.67
2018-11-13T17:38:22.641Z,7.07
2018-11-13T17:40:51.574Z,7.27
2018-11-13T17:43:20.521Z,5.00
2018-11-13T17:45:49.490Z,7.03
2018-11-13T17:48:18.477Z,4.25
2018-11-13T17:50:47.330Z,5.70
2018-11-13T17:53:16.233Z,5.45
2018-11-13T17:55:45.131Z,6.77
2018-11-13T17:58:14.738Z,4.97
2018-11-13T18:00:46.121Z,7.33
2018-11-13T18:03:16.708Z,6.80
2018-11-13T18:05:46.400Z,8.07
2018-11-13T18:08:15.229Z,4.90
2018-11-13T18:10:45.356Z,5.43
2018-11-13T18:13:14.197Z,8.53
2018-11-13T18:15:43.198Z,7.33
2018-11-13T18:18:12.106Z,5.43
2018-11-13T18:20:42.046Z,9.68
2018-11-13T18:23:11.021Z,8.10
2018-11-13T18:25:40.390Z,5.70
2018-11-13T18:28:09.487Z,13.30
2018-11-13T18:30:39.652Z,7.23
2018-11-13T18:33:09.000Z,9.10
2018-11-13T18:35:38.873Z,6.57
2018-11-13T18:38:09.226Z,4.70
2018-11-13T18:40:38.165Z,9.83
2018-11-13T18:43:07.166Z,12.27
2018-11-13T18:45:37.382Z,10.77
2018-11-13T18:48:06.336Z,6.63
2018-11-13T18:50:36.662Z,7.50
2018-11-13T18:53:06.142Z,6.83
2018-11-13T19:03:33.457Z,8.33
2018-11-13T19:06:45.426Z,9.77
2018-11-13T19:11:05.358Z,5.00
2018-11-13T19:13:34.138Z,12.33
2018-11-13T19:16:06.234Z,7.67
2018-11-13T19:18:39.686Z,7.67
2018-11-13T19:21:08.829Z,11.77
2018-11-13T19:23:39.095Z,12.70
2018-11-13T19:26:08.171Z,10.37
2018-11-13T19:28:37.069Z,11.13
2018-11-13T19:36:07.538Z,10.57
2018-11-13T19:38:36.704Z,5.63
2018-11-13T19:41:06.189Z,11.10
2018-11-13T19:43:37.370Z,6.70
2018-11-13T19:46:08.901Z,9.83
2018-11-13T19:48:40.741Z,11.40
2018-11-13T19:51:13.225Z,10.87
2018-11-13T19:53:46.812Z,6.73
2018-11-13T20:01:23.145Z,13.50
2018-11-13T20:03:54.701Z,6.00
2018-11-13T20:06:25.711Z,9.80
2018-11-13T20:08:58.131Z,8.03
2018-11-13T20:11:28.398Z,9.57
2018-11-13T20:13:59.203Z,9.28
2018-11-13T20:16:31.331Z,7.77
2018-11-13T20:19:06.019Z,8.47
2018-11-13T20:21:38.913Z,9.13
2018-11-13T20:24:09.820Z,9.08
2018-11-13T20:26:40.899Z,8.27
2018-11-13T20:29:10.805Z,9.60
2018-11-13T20:31:42.188Z,12.10
2018-11-13T20:34:15.116Z,12.67
2018-11-13T20:36:45.109Z,9.40
2018-11-13T20:39:15.162Z,6.87
2018-11-13T20:41:44.931Z,6.80
2018-11-13T20:44:14.557Z,9.07
2018-11-13T20:46:44.459Z,9.60
2018-11-13T20:50:20.239Z,13.00
2018-11-13T20:52:49.246Z,7.07
2018-11-13T20:55:18.137Z,10.10
2018-11-13T20:57:47.066Z,9.57
2018-11-13T21:00:23.777Z,6.43
2018-11-13T21:02:52.845Z,10.03
2018-11-13T21:05:21.793Z,7.90
2018-11-13T21:07:50.828Z,9.53
2018-11-13T21:10:21.053Z,6.70
2018-11-13T21:12:50.723Z,8.90
2018-11-13T21:15:22.126Z,9.30
2018-11-13T21:17:51.234Z,6.97
2018-11-13T21:20:20.707Z,8.20
2018-11-13T21:22:49.889Z,12.30
2018-11-13T21:25:21.371Z,8.60
2018-11-13T21:27:53.934Z,7.70
2018-11-13T21:30:26.252Z,10.17
2018-11-13T21:32:55.506Z,8.23
2018-11-13T21:35:26.655Z,7.53
2018-11-13T21:37:58.905Z,7.20
2018-11-13T21:40:28.430Z,11.50
2018-11-13T21:42:59.616Z,7.58
2018-11-13T21:45:29.455Z,8.63
2018-11-13T21:47:58.898Z,7.80
2018-11-13T21:50:29.324Z,9.37
2018-11-13T21:52:58.680Z,8.70
2018-11-13T21:55:28.864Z,9.47
2018-11-13T21:57:57.689Z,8.77
2018-11-13T22:00:29.565Z,5.13
2018-11-13T22:03:07.153Z,10.63
2018-11-13T22:05:37.717Z,8.73
2018-11-13T22:08:07.116Z,8.73
2018-11-13T22:10:36.823Z,13.28
2018-11-13T22:13:06.078Z,7.87
2018-11-13T22:15:35.356Z,5.05
2018-11-13T22:18:04.453Z,10.20
2018-11-13T22:20:33.318Z,7.23
2018-11-13T22:23:02.447Z,12.10
2018-11-13T22:25:31.541Z,11.00
2018-11-13T22:28:00.893Z,9.30
2018-11-13T22:30:30.891Z,12.50
2018-11-13T22:33:00.067Z,9.00
2018-11-13T22:35:29.109Z,8.70
2018-11-13T22:37:58.269Z,7.00
2018-11-13T22:40:28.302Z,9.17
2018-11-13T22:42:57.681Z,7.50
2018-11-13T22:45:27.825Z,8.30
2018-11-13T22:47:57.109Z,7.35
2018-11-13T22:50:27.371Z,6.47
2018-11-13T22:52:58.766Z,12.70
2018-11-13T22:55:27.709Z,6.40
2018-11-13T22:57:57.781Z,7.80
2018-11-13T23:00:36.362Z,8.27
2018-11-13T23:03:06.511Z,7.15
2018-11-13T23:05:35.346Z,9.80
2018-11-13T23:08:04.830Z,9.30
2018-11-13T23:10:33.682Z,8.97
2018-11-13T23:13:03.066Z,7.03
2018-11-13T23:15:31.527Z,6.67
2018-11-13T23:18:07.270Z,8.33
2018-11-13T23:20:36.291Z,6.55
2018-11-13T23:23:05.582Z,11.87
2018-11-13T23:25:34.433Z,5.30
2018-11-13T23:28:03.751Z,7.33
2018-11-13T23:30:34.269Z,9.97
2018-11-13T23:33:03.148Z,11.17
2018-11-13T23:35:31.927Z,11.13
2018-11-13T23:38:01.325Z,10.53
2018-11-13T23:40:29.942Z,11.20
2018-11-13T23:42:58.828Z,13.50
2018-11-13T23:45:27.773Z,7.60
2018-11-13T23:47:56.809Z,7.35
2018-11-13T23:50:26.029Z,10.27
2018-11-13T23:52:54.512Z,5.57
2018-11-13T23:55:23.361Z,10.27
2018-11-13T23:57:53.141Z,9.13
